Time;durP1;ratioP1;P1;durP2;ratioP2;P2;SDS_P1;SDS_P2;PMS_P1;PMS_P2;Temp;Humidity;BMP_temperature;BMP_pressure;BME280_temperature;BME280_humidity;BME280_pressure;Samples;Min_cycle;Max_cycle;Signal;HPM_P1;HPM_P2
2022/11/09 00:01:38;;;;;;;;;;;;;;;12.13;87.83;100436.72;5053110;28;20032;-87
2022/11/09 00:04:04;;;;;;;2.73;1.80;;;;;;;12.17;87.46;100437.47;5052228;28;19913;-86
2022/11/09 00:06:31;;;;;;;2.97;1.90;;;;;;;12.18;87.67;100432.22;5070886;28;20028;-86
2022/11/09 00:08:57;;;;;;;1.67;1.58;;;;;;;12.17;87.81;100438.31;5076386;28;20027;-87
2022/11/09 00:11:22;;;;;;;6.13;2.00;;;;;;;12.18;87.68;100440.03;5076873;28;20104;-87
2022/11/09 00:13:48;;;;;;;2.60;1.80;;;;;;;12.18;87.42;100439.19;5076272;28;20020;-87
2022/11/09 00:16:17;;;;;;;1.90;1.70;;;;;;;12.17;87.31;100434.88;5075850;28;20458;-86
2022/11/09 00:18:46;;;;;;;1.40;1.30;;;;;;;12.17;87.45;100429.66;5075828;28;20107;-86
2022/11/09 00:21:13;;;;;;;1.92;1.50;;;;;;;12.16;87.54;100438.38;5060684;28;20026;-86
2022/11/09 00:23:39;;;;;;;1.20;1.10;;;;;;;12.14;87.13;100437.56;5056197;28;20385;-86
2022/11/09 00:26:07;;;;;;;1.53;1.43;;;;;;;12.12;87.92;100432.41;5055062;28;20021;-86
2022/11/09 00:28:33;;;;;;;1.83;1.50;;;;;;;12.13;87.96;100433.25;5055852;28;20031;-87
2022/11/09 00:31:02;;;;;;;1.88;1.48;;;;;;;12.15;87.87;100432.31;5055869;28;20454;-87
2022/11/09 00:33:28;;;;;;;1.73;1.60;;;;;;;12.15;87.87;100429.72;5055413;28;20048;-87
2022/11/09 00:35:54;;;;;;;1.57;1.23;;;;;;;12.17;87.84;100429.66;5069229;28;20029;-86
2022/11/09 00:38:20;;;;;;;2.58;1.45;;;;;;;12.18;88.16;100421.81;5075485;28;20465;-86
2022/11/09 00:40:45;;;;;;;2.60;1.60;;;;;;;12.19;88.08;100422.69;5075374;28;20039;-87
2022/11/09 00:43:11;;;;;;;2.67;1.83;;;;;;;12.22;87.37;100414.75;5075789;28;20036;-86
2022/11/09 00:45:36;;;;;;;3.53;1.90;;;;;;;12.21;87.66;100415.69;5076032;28;20024;-87
2022/11/09 00:48:02;;;;;;;5.07;1.90;;;;;;;12.19;88.29;100415.72;5075238;28;20032;-86
2022/11/09 00:50:27;;;;;;;3.55;1.80;;;;;;;12.20;87.88;100420.03;5075850;28;20041;-87
2022/11/09 00:52:53;;;;;;;4.50;2.03;;;;;;;12.19;88.60;100420.06;5075307;28;20579;-86
2022/11/09 00:55:19;;;;;;;3.73;2.00;;;;;;;12.19;88.26;100415.72;5074710;28;20020;-87
2022/11/09 00:57:48;;;;;;;2.75;1.60;;;;;;;12.18;88.38;100416.59;5075797;28;20047;-87
2022/11/09 01:00:19;;;;;;;2.90;1.80;;;;;;;12.16;88.69;100420.16;5064577;28;20071;-86
2022/11/09 01:02:45;;;;;;;2.50;1.80;;;;;;;12.13;88.63;100420.22;5055734;28;20170;-87
2022/11/09 01:05:10;;;;;;;5.37;2.00;;;;;;;12.15;88.22;100421.03;5055185;28;20529;-87
2022/11/09 01:07:37;;;;;;;4.50;1.80;;;;;;;12.14;88.55;100425.41;5055026;28;20120;-87
2022/11/09 01:10:06;;;;;;;3.40;1.80;;;;;;;12.16;88.43;100428.78;5055423;28;20024;-87
2022/11/09 01:12:31;;;;;;;2.53;1.83;;;;;;;12.14;88.45;100422.81;5055683;28;20047;-87
2022/11/09 01:14:57;;;;;;;4.17;1.90;;;;;;;12.13;88.44;100428.03;5054788;28;20366;-87
2022/11/09 01:17:22;;;;;;;3.80;1.83;;;;;;;12.14;88.12;100437.56;5054768;28;20017;-86
2022/11/09 01:19:48;;;;;;;3.63;1.80;;;;;;;12.13;88.18;100434.09;5054608;28;20096;-87
2022/11/09 01:22:13;;;;;;;3.07;1.90;;;;;;;12.17;88.07;100437.47;5054033;28;20100;-86
2022/11/09 01:24:38;;;;;;;4.97;2.10;;;;;;;12.18;88.12;100442.63;5062802;28;20034;-86
2022/11/09 01:27:04;;;;;;;3.00;1.80;;;;;;;12.16;88.08;100449.59;5074625;28;20052;-86
2022/11/09 01:29:29;;;;;;;2.47;2.00;;;;;;;12.13;87.93;100441.03;5074226;28;20026;-87
2022/11/09 01:31:55;;;;;;;3.00;1.67;;;;;;;12.12;87.95;100435.00;5075265;28;20051;-86
2022/11/09 01:34:20;;;;;;;5.40;1.80;;;;;;;12.12;87.80;100442.81;5075021;28;20028;-87
2022/11/09 01:36:48;;;;;;;5.47;1.80;;;;;;;12.08;88.06;100440.34;5074219;28;20016;-86
2022/11/09 01:39:13;;;;;;;3.33;1.90;;;;;;;12.07;87.83;100438.63;5074796;28;20024;-87
2022/11/09 01:41:39;;;;;;;5.30;2.00;;;;;;;12.21;86.93;100436.50;5075162;28;20032;-87
2022/11/09 01:44:10;;;;;;;5.67;1.77;;;;;;;12.11;87.61;100445.44;5073738;28;20024;-87
2022/11/09 01:46:42;;;;;;;5.18;2.10;;;;;;;12.13;87.27;100444.50;5074892;28;20033;-87
2022/11/09 01:49:19;;;;;;;6.05;2.10;;;;;;;12.14;87.48;100445.34;5074383;28;20480;-85
2022/11/09 01:51:51;;;;;;;3.72;1.80;;;;;;;12.12;87.07;100448.00;5074481;28;20054;-87
2022/11/09 01:54:23;;;;;;;2.58;1.90;;;;;;;12.11;87.32;100451.50;5070147;28;20029;-87
2022/11/09 01:56:53;;;;;;;3.25;1.70;;;;;;;12.12;87.08;100449.75;5054015;28;20120;-87
2022/11/09 01:59:23;;;;;;;3.08;1.90;;;;;;;12.08;87.16;100433.38;5054132;28;20056;-87
2022/11/09 02:01:50;;;;;;;3.13;1.75;;;;;;;12.06;87.29;100437.75;5054303;28;20041;-86
2022/11/09 02:04:37;;;;;;;3.22;2.00;;;;;;;12.05;86.98;100436.06;5053316;28;20058;-86
2022/11/09 02:07:03;;;;;;;4.70;1.77;;;;;;;12.03;87.22;100451.72;5054045;28;20475;-89
2022/11/09 02:09:37;;;;;;;2.90;1.67;;;;;;;12.02;87.00;100449.16;5054375;28;20469;-87
2022/11/09 02:12:02;;;;;;;3.75;1.67;;;;;;;12.01;87.30;100434.44;5052919;28;20497;-86
2022/11/09 02:14:29;;;;;;;1.50;1.40;;;;;;;11.97;87.08;100444.06;5054109;28;20024;-86
2022/11/09 02:16:54;;;;;;;3.13;1.50;;;;;;;11.93;87.20;100436.38;5054404;28;20024;-87
2022/11/09 02:19:20;;;;;;;1.67;1.57;;;;;;;11.89;87.35;100446.88;5059676;28;20043;-86
2022/11/09 02:21:45;;;;;;;2.93;1.60;;;;;;;11.86;87.54;100441.72;5074257;28;20017;-87
2022/11/09 02:24:11;;;;;;;3.33;1.77;;;;;;;11.85;87.54;100450.44;5070056;28;20366;-87
2022/11/09 02:26:50;;;;;;;2.07;1.43;;;;;;;11.85;87.54;100442.63;5053210;28;20469;-87
2022/11/09 02:29:23;;;;;;;2.58;1.48;;;;;;;11.85;87.90;100453.03;5053893;28;20021;-86
2022/11/09 02:31:54;;;;;;;5.00;1.88;;;;;;;11.89;87.45;100456.41;5052845;28;20545;-87
2022/11/09 02:34:20;;;;;;;4.13;1.90;;;;;;;11.89;87.79;100459.88;5053537;28;20029;-87
2022/11/09 02:36:46;;;;;;;5.05;1.95;;;;;;;11.90;87.41;100460.69;5072676;28;20032;-87
2022/11/09 02:39:15;;;;;;;4.53;1.77;;;;;;;11.93;87.32;100471.03;5073009;28;20072;-88
2022/11/09 02:41:45;;;;;;;2.15;1.50;;;;;;;11.95;87.55;100455.38;5073720;28;20656;-86
2022/11/09 02:44:11;;;;;;;3.25;1.70;;;;;;;11.95;87.26;100445.84;5075221;28;20024;-87
2022/11/09 02:46:37;;;;;;;3.35;1.80;;;;;;;11.96;87.17;100442.34;5074390;28;20097;-87
2022/11/09 02:49:03;;;;;;;5.43;1.70;;;;;;;11.97;87.18;100440.59;5073232;28;20465;-87
2022/11/09 02:51:29;;;;;;;5.05;1.77;;;;;;;11.99;86.96;100437.06;5073424;28;20024;-86
2022/11/09 02:53:54;;;;;;;4.33;1.77;;;;;;;11.99;86.91;100441.44;5071600;28;20021;-86
2022/11/09 02:56:19;;;;;;;4.20;1.83;;;;;;;12.00;86.75;100430.13;5066933;28;20013;-86
2022/11/09 02:58:45;;;;;;;5.33;2.30;;;;;;;12.01;86.37;100411.88;5053586;28;20477;-86
2022/11/09 03:01:10;;;;;;;4.47;1.90;;;;;;;12.05;86.45;100416.13;5052675;28;20530;-86
2022/11/09 03:03:36;;;;;;;3.00;1.60;;;;;;;12.06;86.25;100432.56;5053152;28;20032;-86
2022/11/09 03:06:01;;;;;;;4.90;1.80;;;;;;;12.04;85.70;100432.63;5053696;28;20024;-87
2022/11/09 03:08:26;;;;;;;4.43;1.53;;;;;;;12.06;86.29;100440.34;5052978;28;20491;-87
2022/11/09 03:10:52;;;;;;;2.70;1.20;;;;;;;12.07;86.04;100441.22;5054339;28;20354;-87
2022/11/09 03:13:17;;;;;;;4.17;1.33;;;;;;;12.07;86.61;100449.03;5053962;28;20354;-87
2022/11/09 03:15:42;;;;;;;4.47;2.00;;;;;;;12.07;86.61;100462.03;5052449;28;20021;-86
2022/11/09 03:18:07;;;;;;;2.87;1.20;;;;;;;12.05;86.27;100467.25;5052905;28;20048;-86
2022/11/09 03:20:33;;;;;;;3.13;1.20;;;;;;;12.01;86.53;100473.47;5054229;28;20025;-86
2022/11/09 03:22:59;;;;;;;3.67;1.37;;;;;;;12.00;86.58;100479.56;5072290;28;20384;-87
2022/11/09 03:25:25;;;;;;;2.20;1.40;;;;;;;11.96;86.30;100483.09;5058256;28;20108;-86
2022/11/09 03:27:56;;;;;;;4.30;1.30;;;;;;;11.95;86.55;100478.78;5052704;28;20279;-86
2022/11/09 03:30:21;;;;;;;3.47;1.40;;;;;;;11.97;86.47;100482.19;5052859;28;20317;-86
2022/11/09 03:32:46;;;;;;;2.30;1.33;;;;;;;11.97;86.47;100477.00;5053412;28;20473;-86
2022/11/09 03:35:12;;;;;;;3.10;1.43;;;;;;;11.95;86.33;100474.44;5052058;28;20037;-86
2022/11/09 03:37:37;;;;;;;3.73;1.50;;;;;;;11.95;86.66;100481.38;5053275;28;20025;-86
2022/11/09 03:40:02;;;;;;;5.07;1.70;;;;;;;11.94;86.62;100488.34;5052539;28;20466;-86
2022/11/09 03:42:27;;;;;;;2.10;1.60;;;;;;;11.93;86.58;100494.44;5052447;28;20033;-87
2022/11/09 03:44:53;;;;;;;3.83;1.70;;;;;;;11.94;86.42;100501.34;5055821;28;20461;-86
2022/11/09 03:47:18;;;;;;;3.20;1.43;;;;;;;11.93;86.63;100502.25;5056916;28;20028;-87
2022/11/09 03:49:43;;;;;;;2.67;1.50;;;;;;;11.89;86.70;100496.28;5056180;28;20035;-87
2022/11/09 03:52:09;;;;;;;4.33;1.63;;;;;;;11.87;86.95;100503.25;5056311;28;20045;-86
2022/11/09 03:54:34;;;;;;;3.87;1.50;;;;;;;11.85;87.05;100512.84;5057192;28;20576;-87
2022/11/09 03:56:59;;;;;;;2.13;1.30;;;;;;;11.85;87.02;100518.03;5056295;28;20029;-86
2022/11/09 03:59:24;;;;;;;3.90;1.30;;;;;;;11.85;87.36;100522.41;5056775;28;20078;-87
2022/11/09 04:01:50;;;;;;;3.13;1.20;;;;;;;11.84;87.10;100529.31;5056538;28;20037;-87
2022/11/09 04:04:15;;;;;;;3.40;1.50;;;;;;;11.83;87.27;100527.63;5055770;28;20029;-87
2022/11/09 04:06:40;;;;;;;1.80;1.13;;;;;;;11.82;87.81;100530.25;5056660;28;20370;-87
2022/11/09 04:09:05;;;;;;;3.07;1.40;;;;;;;11.80;87.57;100534.66;5056317;28;20025;-86
2022/11/09 04:11:31;;;;;;;2.87;1.60;;;;;;;11.78;87.67;100532.09;5069622;28;20058;-88
2022/11/09 04:13:56;;;;;;;3.10;1.23;;;;;;;11.74;87.60;100528.72;5076599;28;20024;-87
2022/11/09 04:16:21;;;;;;;3.17;1.30;;;;;;;11.70;87.81;100531.44;5076347;28;20037;-87
2022/11/09 04:18:46;;;;;;;3.03;1.47;;;;;;;11.67;87.88;100544.50;5076058;28;20389;-87
2022/11/09 04:21:12;;;;;;;1.83;1.10;;;;;;;11.62;88.17;100544.63;5067978;28;20040;-87
2022/11/09 04:23:37;;;;;;;2.80;1.60;;;;;;;11.58;87.98;100545.56;5056167;28;20396;-87
2022/11/09 04:26:02;;;;;;;1.10;0.93;;;;;;;11.57;87.89;100554.25;5055609;28;20033;-87
2022/11/09 04:28:27;;;;;;;2.60;1.30;;;;;;;11.55;88.31;100554.31;5056102;28;20032;-87
2022/11/09 04:30:53;;;;;;;2.03;1.00;;;;;;;11.54;88.34;100555.19;5056279;28;20025;-87
2022/11/09 04:33:18;;;;;;;1.10;0.90;;;;;;;11.53;88.45;100558.69;5055586;28;20087;-87
2022/11/09 04:35:43;;;;;;;1.63;0.97;;;;;;;11.51;88.89;100562.22;5056378;28;20025;-87
2022/11/09 04:38:11;;;;;;;2.57;1.20;;;;;;;11.49;88.29;100564.84;5055322;28;20420;-87
2022/11/09 04:40:37;;;;;;;5.22;1.48;;;;;;;11.47;89.60;100563.16;5056245;28;20048;-87
2022/11/09 04:43:05;;;;;;;2.57;1.23;;;;;;;11.46;88.97;100564.06;5056161;28;20422;-87
2022/11/09 04:45:32;;;;;;;3.88;1.35;;;;;;;11.45;89.49;100558.03;5055638;28;20032;-87
2022/11/09 04:48:03;;;;;;;3.38;1.30;;;;;;;11.46;89.09;100558.88;5056082;28;20035;-87
2022/11/09 04:50:29;;;;;;;2.20;1.08;;;;;;;11.45;89.04;100563.22;5072433;28;20033;-87
2022/11/09 04:52:54;;;;;;;1.40;1.00;;;;;;;11.45;89.26;100563.22;5075153;28;20098;-87
2022/11/09 04:55:20;;;;;;;1.93;1.00;;;;;;;11.46;89.01;100566.66;5075837;28;20068;-87
2022/11/09 04:57:45;;;;;;;2.37;1.03;;;;;;;11.44;89.16;100570.16;5075698;28;20078;-87
2022/11/09 05:00:11;;;;;;;3.20;1.33;;;;;;;11.43;88.95;100565.84;5074767;28;20028;-86
2022/11/09 05:02:36;;;;;;;3.07;1.37;;;;;;;11.42;89.15;100565.88;5075770;28;20384;-86
2022/11/09 05:05:02;;;;;;;4.47;1.47;;;;;;;11.37;89.69;100560.78;5075336;28;20115;-86
2022/11/09 05:07:28;;;;;;;2.83;1.53;;;;;;;11.33;89.24;100556.53;5074877;28;20024;-86
2022/11/09 05:09:53;;;;;;;4.87;1.40;;;;;;;11.32;89.67;100559.19;5075942;28;20067;-86
2022/11/09 05:12:18;;;;;;;2.57;1.23;;;;;;;11.29;89.49;100549.72;5075570;28;20100;-87
2022/11/09 05:14:43;;;;;;;6.27;1.50;;;;;;;11.25;89.89;100553.28;5073054;28;20481;-86
2022/11/09 05:17:09;;;;;;;3.53;1.70;;;;;;;11.20;90.20;100553.38;5075423;28;20055;-87
2022/11/09 05:19:34;;;;;;;5.20;1.77;;;;;;;11.19;89.95;100551.66;5075351;28;20418;-87
2022/11/09 05:24:45;;;;;;;5.88;1.33;;;;;;;11.13;90.37;100546.63;5074170;28;20131;-87
2022/11/09 05:27:10;;;;;;;2.90;1.40;;;;;;;11.12;90.32;100557.91;5075721;28;20048;-86
2022/11/09 05:29:36;;;;;;;2.90;1.30;;;;;;;11.10;90.26;100551.88;5076501;28;20031;-87
2022/11/09 05:32:01;;;;;;;2.40;1.20;;;;;;;11.10;89.85;100551.88;5076115;28;20029;-86
2022/11/09 05:34:26;;;;;;;3.80;1.40;;;;;;;11.07;90.46;100555.41;5074290;28;20108;-86
2022/11/09 05:36:51;;;;;;;2.63;1.20;;;;;;;11.05;89.86;100554.59;5075406;28;20020;-87
2022/11/09 05:39:17;;;;;;;5.57;1.87;;;;;;;11.03;90.41;100558.13;5074648;28;20033;-87
2022/11/09 05:41:42;;;;;;;6.40;1.50;;;;;;;11.01;90.83;100555.53;5074448;28;20029;-87
2022/11/09 05:44:08;;;;;;;3.20;1.30;;;;;;;11.01;90.38;100565.06;5066868;28;20492;-87
2022/11/09 05:46:33;;;;;;;3.33;1.50;;;;;;;10.99;90.45;100559.06;5054647;28;20029;-86
2022/11/09 05:48:58;;;;;;;3.53;1.50;;;;;;;10.96;90.40;100562.59;5054223;28;20479;-87
2022/11/09 05:51:24;;;;;;;3.23;1.47;;;;;;;10.92;90.60;100556.56;5054264;28;20177;-87
2022/11/09 05:53:49;;;;;;;2.10;1.20;;;;;;;10.92;90.56;100558.31;5055039;28;20024;-87
2022/11/09 05:56:15;;;;;;;3.83;1.40;;;;;;;10.88;91.21;100561.88;5053719;28;20021;-87
2022/11/09 05:58:41;;;;;;;2.17;1.47;;;;;;;10.85;91.08;100560.19;5054505;28;20094;-87
2022/11/09 06:01:10;;;;;;;4.17;1.50;;;;;;;10.84;91.05;100555.88;5054045;28;20032;-87
2022/11/09 06:03:36;;;;;;;3.83;1.30;;;;;;;10.85;90.83;100554.16;5054174;28;20279;-87
2022/11/09 06:06:04;;;;;;;3.80;1.43;;;;;;;10.86;90.61;100558.47;5055150;28;20032;-87
2022/11/09 06:08:29;;;;;;;2.70;1.45;;;;;;;10.84;91.22;100557.66;5074128;28;20016;-86
2022/11/09 06:11:03;;;;;;;3.67;1.83;;;;;;;10.83;91.30;100567.16;5074047;28;20024;-87
2022/11/09 06:13:29;;;;;;;2.15;1.30;;;;;;;10.80;91.05;100568.09;5071889;28;20028;-88
2022/11/09 06:15:55;;;;;;;4.20;1.53;;;;;;;10.74;91.43;100568.22;5062057;22;20052;-87
2022/11/09 06:18:22;;;;;;;2.72;1.30;;;;;;;10.72;91.86;100569.13;5053783;28;20029;-86
2022/11/09 06:20:51;;;;;;;3.15;1.48;;;;;;;10.70;92.03;100565.69;5054398;28;20021;-87
2022/11/09 06:23:16;;;;;;;3.53;1.63;;;;;;;10.65;92.88;100569.25;5053980;28;20122;-86
2022/11/09 06:25:42;;;;;;;5.30;1.60;;;;;;;10.66;92.37;100564.91;5053461;28;20477;-87
2022/11/09 06:28:07;;;;;;;7.43;1.70;;;;;;;10.65;92.89;100577.03;5053905;28;20025;-87
2022/11/09 06:30:32;;;;;;;3.87;1.70;;;;;;;10.65;92.17;100577.03;5053380;28;20545;-86
2022/11/09 06:33:01;;;;;;;4.50;1.40;;;;;;;10.63;91.96;100580.56;5053759;28;20024;-87
2022/11/09 06:35:26;;;;;;;2.15;1.30;;;;;;;10.62;92.92;100579.69;5054109;28;20036;-87
2022/11/09 06:37:57;;;;;;;2.37;1.37;;;;;;;10.62;92.48;100586.63;5053176;28;20028;-86
2022/11/09 06:40:22;;;;;;;4.38;1.77;;;;;;;10.64;92.71;100587.44;5033440;28;20068;-86
2022/11/09 06:42:48;;;;;;;4.67;1.70;;;;;;;10.66;93.28;100589.13;5033854;28;20092;-87
2022/11/09 06:45:13;;;;;;;2.60;1.57;;;;;;;10.67;92.72;100589.97;5032737;28;20463;-86
2022/11/09 06:47:38;;;;;;;4.87;1.73;;;;;;;10.68;93.23;100583.91;5033601;28;20071;-87
2022/11/09 06:50:04;;;;;;;2.60;1.40;;;;;;;10.64;93.47;100592.63;5033343;28;20348;-84
2022/11/09 06:52:29;;;;;;;5.77;1.83;;;;;;;10.66;93.40;100589.13;5045996;28;20033;-89
2022/11/09 06:54:54;;;;;;;3.80;1.50;;;;;;;10.65;93.21;100595.22;5054300;28;20029;-89
2022/11/09 06:57:21;;;;;;;4.70;1.50;;;;;;;10.66;92.87;100596.91;5053755;28;20420;-87
2022/11/09 06:59:46;;;;;;;5.47;1.77;;;;;;;10.65;94.01;100596.94;5053827;28;20025;-88
2022/11/09 07:02:16;;;;;;;5.30;1.70;;;;;;;10.65;93.70;100597.81;5053418;28;20500;-88
2022/11/09 07:04:41;;;;;;;4.82;1.60;;;;;;;10.65;93.11;100605.59;5054139;28;20071;-88
2022/11/09 07:07:07;;;;;;;3.97;1.60;;;;;;;10.65;94.40;100605.59;5053237;28;20033;-88
2022/11/09 07:09:32;;;;;;;3.80;1.50;;;;;;;10.69;93.33;100608.13;5053728;28;20024;-89
2022/11/09 07:11:57;;;;;;;6.00;1.70;;;;;;;10.70;92.93;100610.69;5053627;28;20025;-90
2022/11/09 07:14:22;;;;;;;2.50;1.53;;;;;;;10.72;92.69;100613.25;5059413;28;20017;-91
2022/11/09 07:16:48;;;;;;;3.67;1.53;;;;;;;10.71;93.35;100608.94;5054009;28;20048;-85
2022/11/09 07:19:13;;;;;;;4.17;1.83;;;;;;;10.71;93.14;100614.13;5052301;28;20032;-86
2022/11/09 07:21:38;;;;;;;6.33;1.80;;;;;;;10.69;94.09;100621.09;5051790;28;20476;-85
2022/11/09 07:24:04;;;;;;;3.23;1.53;;;;;;;10.69;93.41;100621.09;5052408;28;20055;-86
2022/11/09 07:26:29;;;;;;;5.07;1.80;;;;;;;10.72;93.00;100623.63;5053018;28;20382;-86
2022/11/09 07:28:54;;;;;;;4.90;1.70;;;;;;;10.74;93.04;100621.84;5052416;28;20024;-86
2022/11/09 07:31:20;;;;;;;4.20;1.70;;;;;;;10.73;93.69;100625.34;5052642;28;20120;-86
2022/11/09 07:33:48;;;;;;;3.03;1.60;;;;;;;10.74;93.42;100619.25;5053045;28;20017;-87
2022/11/09 07:36:13;;;;;;;4.35;1.52;;;;;;;10.75;93.30;100616.63;5051106;28;20025;-86
2022/11/09 07:38:39;;;;;;;2.27;1.50;;;;;;;10.76;92.95;100626.13;5052923;28;20032;-87
2022/11/09 07:41:04;;;;;;;4.17;1.70;;;;;;;10.76;93.24;100620.94;5052014;28;20074;-87
2022/11/09 07:43:30;;;;;;;3.40;1.73;;;;;;;10.78;93.76;100626.97;5052903;28;20104;-87
2022/11/09 07:45:55;;;;;;;3.73;1.50;;;;;;;10.78;93.93;100621.78;5053001;28;20032;-88
2022/11/09 07:48:21;;;;;;;6.10;1.80;;;;;;;10.78;93.91;100626.97;5055005;28;20258;-87
2022/11/09 07:50:46;;;;;;;5.37;1.83;;;;;;;10.80;94.32;100632.97;5053076;28;20025;-87
2022/11/09 07:53:14;;;;;;;7.17;2.00;;;;;;;10.82;93.36;100625.16;5052889;28;20025;-86
2022/11/09 07:55:39;;;;;;;5.75;1.70;;;;;;;10.84;93.55;100631.19;5052287;28;20462;-86
2022/11/09 07:58:08;;;;;;;6.67;1.80;;;;;;;10.90;92.95;100636.25;5052466;28;20025;-86
2022/11/09 08:00:35;;;;;;;5.55;2.00;;;;;;;10.93;93.67;100641.38;5052291;28;20389;-87
2022/11/09 08:03:01;;;;;;;7.35;1.90;;;;;;;11.03;92.96;100636.03;5052356;28;20029;-86
2022/11/09 08:05:26;;;;;;;5.27;1.80;;;;;;;11.07;92.99;100640.25;5052707;28;20036;-85
2022/11/09 08:07:56;;;;;;;4.23;1.80;;;;;;;11.12;93.16;100635.81;5052776;28;20086;-87
2022/11/09 08:10:22;;;;;;;2.28;1.42;;;;;;;11.19;93.21;100642.59;5051880;28;20043;-86
2022/11/09 08:12:55;;;;;;;3.93;1.50;;;;;;;11.21;93.09;100640.81;5053470;28;20025;-88
2022/11/09 08:15:21;;;;;;;7.72;1.90;;;;;;;11.26;92.74;100651.94;5054034;28;20049;-88
2022/11/09 08:17:46;;;;;;;4.27;1.50;;;;;;;11.34;92.88;100653.56;5049810;28;20040;-88
2022/11/09 08:20:11;;;;;;;2.67;1.67;;;;;;;11.39;92.68;100649.97;5051944;28;20057;-87
2022/11/09 08:22:41;;;;;;;6.63;1.73;;;;;;;11.43;92.13;100656.78;5052808;28;20029;-88
2022/11/09 08:25:07;;;;;;;5.28;1.70;;;;;;;11.46;92.33;100655.88;5052132;28;20037;-87
2022/11/09 08:27:38;;;;;;;4.83;2.00;;;;;;;11.50;91.79;100664.47;5051465;28;20104;-89
2022/11/09 08:30:05;;;;;;;4.40;1.90;;;;;;;11.55;91.16;100668.66;5053366;28;20048;-87
2022/11/09 08:32:31;;;;;;;3.88;1.90;;;;;;;11.63;91.08;100672.84;5055302;28;20025;-85
2022/11/09 08:34:56;;;;;;;5.60;1.97;;;;;;;11.69;91.29;100675.31;5055200;28;20082;-89
2022/11/09 08:37:21;;;;;;;5.10;1.90;;;;;;;11.79;91.37;100674.22;5054337;28;20024;-85
2022/11/09 08:39:47;;;;;;;3.47;1.80;;;;;;;11.91;90.81;100683.44;5053502;28;20362;-85
2022/11/09 08:42:12;;;;;;;6.27;1.90;;;;;;;11.94;90.54;100678.19;5053906;28;20049;-84
2022/11/09 08:44:37;;;;;;;4.33;1.80;;;;;;;11.99;90.23;100678.09;5059458;28;20465;-89
2022/11/09 08:47:02;;;;;;;5.60;1.90;;;;;;;12.04;90.22;100686.66;5058175;28;20033;-85
2022/11/09 08:49:28;;;;;;;8.37;2.10;;;;;;;12.07;89.64;100683.13;5056665;28;20044;-87
2022/11/09 08:51:53;;;;;;;3.57;1.83;;;;;;;12.13;90.02;100683.84;5055882;28;20033;-87
2022/11/09 08:54:18;;;;;;;5.30;1.77;;;;;;;12.26;88.79;100687.00;5056120;28;20088;-89
2022/11/09 08:56:45;;;;;;;7.33;2.07;;;;;;;12.36;87.60;100678.06;5056253;28;20078;-86
2022/11/09 08:59:10;;;;;;;6.00;2.20;;;;;;;12.49;89.05;100682.94;5054972;28;20060;-85
2022/11/09 09:01:36;;;;;;;3.83;1.97;;;;;;;12.58;87.70;100681.88;5055860;28;20029;-84
2022/11/09 09:04:01;;;;;;;5.03;1.80;;;;;;;12.61;88.20;100692.22;5055511;28;20075;-85
2022/11/09 09:06:26;;;;;;;4.27;1.80;;;;;;;12.64;87.78;100679.09;5054746;28;20036;-84
2022/11/09 09:08:52;;;;;;;4.37;1.60;;;;;;;12.67;86.86;100679.84;5055407;28;20017;-83
2022/11/09 09:11:17;;;;;;;5.30;1.93;;;;;;;12.76;86.30;100688.34;5055345;28;20025;-80
2022/11/09 09:13:42;;;;;;;8.53;2.33;;;;;;;12.82;86.15;100683.81;5054867;28;20108;-83
2022/11/09 09:16:10;;;;;;;4.53;1.80;;;;;;;12.88;85.70;100687.13;5055269;28;20033;-88
2022/11/09 09:18:35;;;;;;;2.95;1.60;;;;;;;12.92;86.21;100692.22;5055721;28;20025;-87
2022/11/09 09:21:03;;;;;;;3.90;1.60;;;;;;;12.98;85.64;100688.59;5054871;28;20017;-84
2022/11/09 09:23:29;;;;;;;5.15;1.60;;;;;;;13.02;84.78;100695.44;5054766;28;20029;-84
2022/11/09 09:25:56;;;;;;;6.10;2.10;;;;;;;13.06;85.16;100690.97;5054128;28;20048;-85
2022/11/09 09:28:21;;;;;;;8.20;2.05;;;;;;;13.06;84.64;100688.38;5051273;28;20416;-84
2022/11/09 09:30:46;;;;;;;7.93;2.17;;;;;;;13.06;82.69;100691.81;5054247;28;20036;-84
2022/11/09 09:33:12;;;;;;;7.10;2.10;;;;;;;12.99;82.87;100695.50;5054641;28;20053;-84
2022/11/09 09:35:37;;;;;;;5.23;2.07;;;;;;;13.00;83.98;100692.00;5054383;28;20028;-84
2022/11/09 09:38:03;;;;;;;7.10;2.00;;;;;;;13.05;81.88;100707.50;5054513;28;20032;-84
2022/11/09 09:40:52;;;;;;;6.80;1.90;;;;;;;13.14;83.03;100704.63;5054093;28;20017;-84
2022/11/09 09:43:29;;;;;;;7.18;1.90;;;;;;;13.19;83.60;100694.94;5087285;28;20040;-84
2022/11/09 09:45:54;;;;;;;6.65;1.98;;;;;;;13.20;81.90;100695.78;5054922;28;20029;-85
2022/11/09 09:48:32;;;;;;;6.07;1.87;;;;;;;13.19;82.51;100694.94;5053908;28;20036;-87
2022/11/09 09:51:05;;;;;;;4.28;1.90;;;;;;;13.27;82.82;100706.00;5054845;28;20021;-86
2022/11/09 09:53:43;;;;;;;5.10;1.58;;;;;;;13.32;82.43;100718.06;5054736;28;20481;-85
2022/11/09 09:56:22;;;;;;;5.35;1.90;;;;;;;13.34;81.13;100722.31;5053773;28;20037;-86
2022/11/09 09:58:54;;;;;;;5.68;1.70;;;;;;;13.36;81.06;100719.66;5054503;28;20059;-86
2022/11/09 10:01:26;;;;;;;7.28;2.08;;;;;;;13.40;80.55;100729.97;5054347;28;20025;-86
2022/11/09 10:03:52;;;;;;;4.97;1.45;;;;;;;13.48;80.56;100728.94;5053905;28;20040;-85
2022/11/09 10:06:57;;;;;;;4.40;1.53;;;;;;;13.48;81.12;100728.94;5054306;28;20114;-86
2022/11/09 10:09:48;;;;;;;6.68;1.77;;;;;;;13.55;80.58;100726.09;5053348;28;20492;-86
2022/11/09 10:12:55;;;;;;;8.13;2.08;;;;;;;13.70;80.29;100736.94;5054282;28;20029;-86
2022/11/09 10:15:37;;;;;;;8.15;2.10;;;;;;;13.70;78.22;100732.59;5030946;28;20040;-86
2022/11/09 10:18:23;;;;;;;5.68;2.00;;;;;;;13.70;79.11;100729.13;5054019;28;20083;-86
2022/11/09 10:20:54;;;;;;;6.38;2.00;;;;;;;13.59;78.29;100737.28;5054330;28;20063;-89
2022/11/09 10:23:39;;;;;;;5.97;1.80;;;;;;;13.56;77.88;100739.97;5053278;28;20373;-86
2022/11/09 10:26:18;;;;;;;5.75;1.75;;;;;;;13.58;79.06;100725.16;5053787;28;20040;-85
2022/11/09 10:28:46;;;;;;;5.00;1.85;;;;;;;13.52;78.33;100731.41;5054376;28;20017;-86
2022/11/09 10:31:18;;;;;;;7.05;1.92;;;;;;;13.54;78.53;100750.47;5053410;28;20083;-87
2022/11/09 10:33:48;;;;;;;6.68;2.00;;;;;;;13.66;78.05;100724.91;5054583;28;20033;-87
2022/11/09 10:36:32;;;;;;;5.63;1.95;;;;;;;13.73;78.27;100737.75;5054151;28;20036;-86
2022/11/09 10:39:00;;;;;;;4.72;1.50;;;;;;;13.84;77.31;100741.78;5053888;28;20092;-87
2022/11/09 10:41:38;;;;;;;4.97;1.85;;;;;;;13.94;77.48;100743.19;5054612;28;20025;-90
2022/11/09 10:44:03;;;;;;;4.88;1.60;;;;;;;14.01;76.36;100749.91;5054270;28;20025;-88
2022/11/09 10:46:28;;;;;;;5.13;1.80;;;;;;;14.07;77.88;100746.25;5054585;28;20143;-91
2022/11/09 10:48:54;;;;;;;4.00;1.47;;;;;;;14.09;78.23;100754.03;5054521;28;20108;-89
2022/11/09 10:51:32;;;;;;;4.97;1.30;;;;;;;14.10;78.45;100759.22;5053194;28;20031;-90
2022/11/09 10:54:21;;;;;;;3.28;1.40;;;;;;;14.12;77.89;100762.66;5053490;28;20032;-90
2022/11/09 10:57:15;;;;;;;2.30;1.05;;;;;;;14.08;77.12;100757.53;5053618;28;20024;-86
2022/11/09 10:59:50;;;;;;;3.85;1.30;;;;;;;14.01;76.74;100759.50;5049183;28;20068;-86
2022/11/09 11:02:39;;;;;;;2.60;1.20;;;;;;;13.93;77.45;100766.69;5055126;28;20037;-86
2022/11/09 11:05:04;;;;;;;5.93;1.55;;;;;;;13.83;76.11;100763.53;5052410;28;20071;-84
2022/11/09 11:07:30;;;;;;;5.13;1.50;;;;;;;13.76;76.30;100770.69;5053405;28;20029;-85
2022/11/09 11:10:07;;;;;;;5.57;1.60;;;;;;;13.62;75.14;100762.41;5053502;28;20074;-84
2022/11/09 11:12:33;;;;;;;6.65;1.92;;;;;;;13.64;76.45;100769.28;5052878;28;20025;-84
2022/11/09 11:14:58;;;;;;;3.73;1.30;;;;;;;13.62;76.58;100770.22;5053167;28;20091;-84
2022/11/09 11:17:33;;;;;;;2.43;1.43;;;;;;;13.64;77.21;100773.66;5052841;28;20520;-85
2022/11/09 11:20:21;;;;;;;1.75;1.05;;;;;;;13.65;77.42;100765.78;5052367;28;20056;-84
2022/11/09 11:22:47;;;;;;;3.13;1.30;;;;;;;13.65;77.22;100777.97;5052825;28;20473;-83
2022/11/09 11:25:19;;;;;;;4.13;1.33;;;;;;;13.63;77.59;100777.16;5052609;28;20127;-85
2022/11/09 11:28:02;;;;;;;4.30;1.58;;;;;;;13.56;75.67;100777.34;5052129;28;20025;-85
2022/11/09 11:30:34;;;;;;;3.92;1.35;;;;;;;13.52;76.38;100769.63;5052860;28;20037;-85